createdAt,value
2023-02-28T00:02:59.484Z,100.00
2023-02-28T00:08:03.255Z,100.00
2023-02-28T00:13:08.873Z,100.00
2023-02-28T00:18:12.771Z,100.00
2023-02-28T00:23:16.473Z,100.00
2023-02-28T00:28:21.736Z,100.00
2023-02-28T00:33:25.566Z,100.00
2023-02-28T00:38:31.183Z,100.00
2023-02-28T00:43:37.918Z,100.00
2023-02-28T00:48:41.695Z,100.00
2023-02-28T00:53:45.420Z,100.00
2023-02-28T00:58:50.443Z,100.00
2023-02-28T01:03:56.491Z,100.00
2023-02-28T01:09:00.598Z,100.00
2023-02-28T01:14:07.364Z,100.00
2023-02-28T01:19:11.169Z,100.00
2023-02-28T01:24:15.772Z,100.00
2023-02-28T01:29:20.873Z,100.00
2023-02-28T01:34:24.623Z,100.00
2023-02-28T01:39:28.576Z,100.00
2023-02-28T01:45:20.325Z,100.00
2023-02-28T01:50:28.048Z,100.00
2023-02-28T01:55:32.638Z,100.00
2023-02-28T02:00:37.753Z,100.00
2023-02-28T02:05:43.100Z,100.00
2023-02-28T02:10:51.235Z,100.00
2023-02-28T02:16:04.552Z,100.00
2023-02-28T02:21:47.205Z,100.00
2023-02-28T02:27:06.039Z,100.00
2023-02-28T02:32:32.562Z,100.00
2023-02-28T02:37:42.800Z,100.00
2023-02-28T02:42:53.099Z,100.00
2023-02-28T02:48:01.199Z,100.00
2023-02-28T02:53:11.031Z,100.00
2023-02-28T02:58:17.026Z,100.00
2023-02-28T03:03:29.960Z,100.00
2023-02-28T03:08:38.566Z,100.00
2023-02-28T03:13:53.685Z,100.00
2023-02-28T03:19:08.883Z,100.00
2023-02-28T03:24:19.561Z,100.00
2023-02-28T03:29:30.421Z,100.00
2023-02-28T03:34:38.170Z,100.00
2023-02-28T03:39:47.661Z,100.00
2023-02-28T03:44:55.825Z,100.00
2023-02-28T03:50:01.850Z,100.00
2023-02-28T03:55:11.805Z,100.00
2023-02-28T04:00:22.042Z,100.00
2023-02-28T04:05:26.740Z,100.00
2023-02-28T04:10:31.877Z,100.00
2023-02-28T04:15:35.580Z,100.00
2023-02-28T04:20:39.311Z,100.00
2023-02-28T04:25:44.599Z,100.00
2023-02-28T04:30:48.280Z,100.00
2023-02-28T04:36:00.761Z,100.00
2023-02-28T04:41:06.909Z,100.00
2023-02-28T04:46:12.362Z,100.00
2023-02-28T04:51:17.684Z,100.00
2023-02-28T04:56:24.895Z,100.00
2023-02-28T05:01:30.736Z,100.00
2023-02-28T05:06:35.552Z,100.00
2023-02-28T05:11:41.551Z,100.00
2023-02-28T05:16:45.460Z,100.00
2023-02-28T05:21:54.244Z,100.00
2023-02-28T05:26:59.304Z,100.00
2023-02-28T05:32:03.093Z,100.00
2023-02-28T05:37:06.990Z,100.00
2023-02-28T05:42:12.029Z,100.00
2023-02-28T05:47:16.564Z,100.00
2023-02-28T05:52:20.264Z,100.00
2023-02-28T05:57:25.699Z,100.00
2023-02-28T06:02:29.479Z,100.00
2023-02-28T06:07:33.122Z,100.00
2023-02-28T06:12:39.012Z,100.00
2023-02-28T06:17:43.123Z,100.00
2023-02-28T06:22:47.054Z,100.00
2023-02-28T06:27:52.128Z,100.00
2023-02-28T06:32:56.255Z,100.00
2023-02-28T06:38:00.063Z,100.00
2023-02-28T06:43:05.428Z,100.00
2023-02-28T06:48:09.291Z,100.00
2023-02-28T06:53:12.986Z,100.00
2023-02-28T06:58:19.703Z,100.00
2023-02-28T07:03:24.130Z,100.00
2023-02-28T07:08:28.643Z,100.00
2023-02-28T07:13:33.705Z,100.00
2023-02-28T07:18:37.834Z,100.00
2023-02-28T07:23:42.734Z,100.00
2023-02-28T07:28:49.563Z,100.00
2023-02-28T07:33:54.448Z,100.00
2023-02-28T07:39:00.903Z,100.00
2023-02-28T07:44:06.077Z,100.00
2023-02-28T07:49:09.858Z,100.00
2023-02-28T07:54:13.550Z,100.00
2023-02-28T07:59:18.590Z,100.00
2023-02-28T08:04:22.286Z,100.00
2023-02-28T08:09:26.148Z,100.00
2023-02-28T08:14:31.315Z,100.00
2023-02-28T08:19:35.105Z,100.00
2023-02-28T08:24:38.944Z,100.00
2023-02-28T08:29:44.037Z,100.00
2023-02-28T08:34:48.082Z,100.00
2023-02-28T08:39:54.747Z,100.00
2023-02-28T08:45:01.184Z,97.87
2023-02-28T08:50:05.625Z,89.53
2023-02-28T08:55:10.432Z,73.72
2023-02-28T09:00:16.279Z,76.51
2023-02-28T09:05:20.036Z,69.85
2023-02-28T09:10:23.748Z,65.88
2023-02-28T09:15:28.785Z,66.29
2023-02-28T09:20:32.495Z,66.31
2023-02-28T09:25:36.588Z,62.22
2023-02-28T09:30:41.726Z,60.50
2023-02-28T09:35:45.604Z,63.95
2023-02-28T09:40:52.717Z,56.47
2023-02-28T09:46:04.638Z,55.94
2023-02-28T09:51:42.335Z,55.87
2023-02-28T09:56:47.490Z,58.10
2023-02-28T10:02:00.194Z,55.44
2023-02-28T10:07:18.463Z,55.29
2023-02-28T10:12:22.048Z,52.53
2023-02-28T10:17:34.524Z,52.16
2023-02-28T10:22:50.834Z,54.86
2023-02-28T10:27:56.476Z,48.60
2023-02-28T10:33:01.604Z,53.51
2023-02-28T10:38:16.764Z,48.40
2023-02-28T10:43:23.355Z,48.97
2023-02-28T10:48:40.010Z,49.25
2023-02-28T10:54:00.987Z,45.40
2023-02-28T10:59:28.869Z,45.29
2023-02-28T11:04:40.351Z,43.68
2023-02-28T11:09:48.515Z,44.88
2023-02-28T11:14:55.385Z,40.68
2023-02-28T11:20:04.496Z,39.09
2023-02-28T11:25:17.605Z,37.15
2023-02-28T11:30:35.034Z,37.64
2023-02-28T11:35:41.715Z,34.80
2023-02-28T11:40:51.577Z,35.08
2023-02-28T11:46:08.379Z,35.95
2023-02-28T11:51:20.416Z,34.93
2023-02-28T11:56:33.519Z,32.87
2023-02-28T12:01:49.800Z,32.00
2023-02-28T12:07:03.627Z,32.20
2023-02-28T12:12:21.983Z,30.00
2023-02-28T12:17:45.529Z,30.34
2023-02-28T12:23:02.813Z,29.13
2023-02-28T12:28:07.093Z,28.39
2023-02-28T12:33:14.666Z,29.63
2023-02-28T12:38:24.139Z,27.42
2023-02-28T12:43:35.040Z,28.11
2023-02-28T12:48:44.407Z,27.53
2023-02-28T12:54:10.545Z,27.43
2023-02-28T12:59:24.445Z,26.79
2023-02-28T13:04:52.402Z,26.78
2023-02-28T13:09:58.400Z,25.40
2023-02-28T13:15:12.884Z,26.09
2023-02-28T13:20:19.601Z,25.63
2023-02-28T13:25:58.646Z,26.86
2023-02-28T13:31:05.968Z,25.17
2023-02-28T13:36:13.327Z,25.97
2023-02-28T13:41:53.401Z,25.82
2023-02-28T13:47:25.491Z,24.84
2023-02-28T13:52:29.618Z,24.33
2023-02-28T13:57:46.539Z,24.78
2023-02-28T14:03:09.953Z,24.28
2023-02-28T14:08:18.787Z,24.48
2023-02-28T14:13:50.110Z,24.97
2023-02-28T14:19:02.648Z,24.32
2023-02-28T14:24:48.772Z,24.44
2023-02-28T14:30:38.878Z,23.76
2023-02-28T14:35:56.255Z,23.42
2023-02-28T14:41:05.426Z,23.79
2023-02-28T14:46:09.261Z,23.86
2023-02-28T14:51:20.280Z,24.60
2023-02-28T14:56:28.177Z,24.33
2023-02-28T15:01:32.980Z,24.55
2023-02-28T15:06:38.149Z,24.39
2023-02-28T15:11:42.329Z,24.38
2023-02-28T15:16:51.091Z,24.87
2023-02-28T15:22:00.552Z,24.70
2023-02-28T15:27:08.599Z,24.97
2023-02-28T15:32:26.972Z,25.32
2023-02-28T15:37:40.640Z,24.55
2023-02-28T15:42:45.769Z,24.24
2023-02-28T15:47:49.910Z,25.24
2023-02-28T15:52:54.993Z,26.13
2023-02-28T15:58:02.227Z,26.99
2023-02-28T16:03:27.515Z,27.82
2023-02-28T16:08:32.516Z,28.72
2023-02-28T16:13:36.323Z,29.95
2023-02-28T16:18:40.026Z,31.05
2023-02-28T16:23:45.212Z,31.99
2023-02-28T16:28:49.226Z,32.65
2023-02-28T16:33:52.918Z,33.79
2023-02-28T16:38:58.070Z,33.87
2023-02-28T16:44:02.474Z,34.26
2023-02-28T16:49:06.327Z,35.13
2023-02-28T16:54:11.432Z,35.35
2023-02-28T16:59:17.165Z,35.76
2023-02-28T17:04:20.912Z,36.12
2023-02-28T17:09:36.753Z,36.56
2023-02-28T17:14:45.557Z,37.09
2023-02-28T17:19:49.734Z,37.68
2023-02-28T17:24:56.822Z,37.95
2023-02-28T17:30:00.889Z,38.17
2023-02-28T17:35:04.770Z,38.54
2023-02-28T17:40:15.813Z,38.96
2023-02-28T17:45:19.686Z,40.52
2023-02-28T17:50:24.020Z,39.94
2023-02-28T17:55:29.142Z,40.72
2023-02-28T18:00:34.453Z,41.36
2023-02-28T18:05:38.353Z,42.68
2023-02-28T18:10:43.509Z,42.32
2023-02-28T18:15:48.379Z,43.39
2023-02-28T18:20:53.176Z,43.96
2023-02-28T18:25:58.784Z,43.82
2023-02-28T18:31:07.300Z,44.98
2023-02-28T18:36:11.437Z,46.26
2023-02-28T18:41:16.469Z,45.71
2023-02-28T18:46:21.217Z,46.10
2023-02-28T18:51:26.716Z,47.28
2023-02-28T18:56:31.972Z,47.68
2023-02-28T19:01:36.380Z,48.21
2023-02-28T19:06:40.135Z,49.12
2023-02-28T19:11:45.243Z,50.24
2023-02-28T19:16:50.254Z,51.47
2023-02-28T19:21:55.515Z,52.19
2023-02-28T19:27:01.207Z,53.86
2023-02-28T19:32:05.103Z,55.42
2023-02-28T19:37:08.997Z,55.87
2023-02-28T19:42:15.698Z,57.09
2023-02-28T19:47:19.382Z,57.87
2023-02-28T19:52:23.485Z,61.02
2023-02-28T19:57:28.701Z,62.50
2023-02-28T20:02:32.388Z,62.44
2023-02-28T20:07:36.879Z,63.61
2023-02-28T20:12:41.902Z,64.23
2023-02-28T20:17:46.737Z,67.45
2023-02-28T20:22:50.707Z,69.29
2023-02-28T20:27:55.775Z,68.63
2023-02-28T20:32:59.501Z,68.31
2023-02-28T20:38:03.256Z,71.89
2023-02-28T20:43:08.352Z,72.66
2023-02-28T20:48:12.100Z,72.72
2023-02-28T20:53:15.865Z,76.41
2023-02-28T20:58:20.886Z,74.85
2023-02-28T21:03:24.621Z,77.40
2023-02-28T21:08:28.322Z,76.91
2023-02-28T21:13:33.367Z,79.78
2023-02-28T21:18:38.117Z,81.48
2023-02-28T21:23:42.288Z,83.10
2023-02-28T21:28:50.433Z,84.29
2023-02-28T21:33:55.142Z,83.44
2023-02-28T21:39:01.155Z,86.87
2023-02-28T21:44:06.594Z,87.86
2023-02-28T21:49:10.363Z,89.35
2023-02-28T21:54:14.650Z,92.93
2023-02-28T21:59:20.519Z,95.74
2023-02-28T22:04:24.367Z,95.97
2023-02-28T22:09:28.873Z,98.53
2023-02-28T22:14:34.017Z,99.51
2023-02-28T22:19:37.858Z,100.00
2023-02-28T22:24:41.689Z,100.00
2023-02-28T22:29:48.747Z,100.00
2023-02-28T22:34:52.613Z,100.00
2023-02-28T22:39:56.353Z,100.00
2023-02-28T22:45:01.386Z,100.00
2023-02-28T22:50:05.742Z,100.00
2023-02-28T22:55:10.930Z,100.00
2023-02-28T23:00:16.756Z,100.00
2023-02-28T23:05:20.490Z,100.00
2023-02-28T23:10:24.182Z,100.00
2023-02-28T23:15:29.305Z,100.00
2023-02-28T23:20:32.983Z,100.00
2023-02-28T23:25:37.721Z,100.00
2023-02-28T23:30:42.755Z,100.00
2023-02-28T23:35:46.437Z,100.00
2023-02-28T23:40:50.127Z,100.00
2023-02-28T23:45:57.712Z,100.00
2023-02-28T23:51:02.679Z,100.00
2023-02-28T23:56:07.497Z,100.00
